createdAt,value
2022-09-01T00:01:56.919Z,70.09
2022-09-01T00:04:46.475Z,70.02
2022-09-01T00:07:35.351Z,70.00
2022-09-01T00:10:23.342Z,70.45
2022-09-01T00:13:11.295Z,70.49
2022-09-01T00:16:01.747Z,70.62
2022-09-01T00:18:53.913Z,70.92
2022-09-01T00:21:45.189Z,70.88
2022-09-01T00:24:33.286Z,71.09
2022-09-01T00:27:21.201Z,70.88
2022-09-01T00:30:15.707Z,70.95
2022-09-01T00:33:03.625Z,71.00
2022-09-01T00:35:51.400Z,71.43
2022-09-01T00:38:39.242Z,71.97
2022-09-01T00:41:31.350Z,71.86
2022-09-01T00:44:27.271Z,72.11
2022-09-01T00:47:19.100Z,71.94
2022-09-01T00:50:11.374Z,71.61
2022-09-01T00:52:59.590Z,71.82
2022-09-01T00:55:47.429Z,71.88
2022-09-01T00:58:37.955Z,72.20
2022-09-01T01:01:26.025Z,72.46
2022-09-01T01:04:16.906Z,72.98
2022-09-01T01:07:06.402Z,73.46
2022-09-01T01:09:54.636Z,73.35
2022-09-01T01:12:43.961Z,73.94
2022-09-01T01:15:32.267Z,74.13
2022-09-01T01:18:23.360Z,74.57
2022-09-01T01:21:42.446Z,75.31
2022-09-01T01:24:34.795Z,75.84
2022-09-01T01:27:22.850Z,76.24
2022-09-01T01:30:13.096Z,75.91
2022-09-01T01:33:01.837Z,75.79
2022-09-01T01:35:53.304Z,76.09
2022-09-01T01:38:43.458Z,76.63
2022-09-01T01:41:33.501Z,76.27
2022-09-01T01:44:28.145Z,76.82
2022-09-01T01:47:17.838Z,77.67
2022-09-01T01:50:09.326Z,77.91
2022-09-01T01:52:58.695Z,78.17
2022-09-01T01:55:51.235Z,78.47
2022-09-01T01:58:40.457Z,78.59
2022-09-01T02:01:32.048Z,78.71
2022-09-01T02:04:21.084Z,78.41
2022-09-01T02:07:13.286Z,78.79
2022-09-01T02:10:01.912Z,78.94
2022-09-01T02:12:50.502Z,78.94
2022-09-01T02:15:45.523Z,79.09
2022-09-01T02:18:42.845Z,79.71
2022-09-01T02:21:30.743Z,79.78
2022-09-01T02:24:18.655Z,80.08
2022-09-01T02:27:06.850Z,80.77
2022-09-01T02:29:55.455Z,80.65
2022-09-01T02:32:43.417Z,80.49
2022-09-01T02:35:34.186Z,81.04
2022-09-01T02:38:29.775Z,81.13
2022-09-01T02:41:20.180Z,80.77
2022-09-01T02:44:11.728Z,80.56
2022-09-01T02:47:00.814Z,80.25
2022-09-01T02:49:51.735Z,80.31
2022-09-01T02:52:40.425Z,80.85
2022-09-01T02:55:28.509Z,81.35
2022-09-01T02:58:19.074Z,81.19
2022-09-01T03:01:25.111Z,81.63
2022-09-01T03:04:13.718Z,81.53
2022-09-01T03:07:06.310Z,81.93
2022-09-01T03:09:54.101Z,82.45
2022-09-01T03:12:41.850Z,82.51
2022-09-01T03:15:30.432Z,82.67
2022-09-01T03:18:21.511Z,83.04
2022-09-01T03:21:14.999Z,83.03
2022-09-01T03:24:03.911Z,83.48
2022-09-01T03:26:52.334Z,86.51
2022-09-01T03:29:40.126Z,86.06
2022-09-01T03:32:29.289Z,88.29
2022-09-01T03:35:17.557Z,86.92
2022-09-01T03:38:05.653Z,86.55
2022-09-01T03:41:05.877Z,87.20
2022-09-01T03:43:55.018Z,87.82
2022-09-01T03:46:44.661Z,88.28
2022-09-01T03:49:32.450Z,88.66
2022-09-01T03:52:20.526Z,88.98
2022-09-01T03:55:09.817Z,88.80
2022-09-01T03:58:03.233Z,89.41
2022-09-01T04:00:56.026Z,89.34
2022-09-01T04:03:46.877Z,89.50
2022-09-01T04:06:37.442Z,89.42
2022-09-01T04:09:25.251Z,89.67
2022-09-01T04:12:15.773Z,89.48
2022-09-01T04:15:04.976Z,89.66
2022-09-01T04:18:20.068Z,89.86
2022-09-01T04:21:08.230Z,90.57
2022-09-01T04:24:00.106Z,91.16
2022-09-01T04:26:48.923Z,91.56
2022-09-01T04:29:37.180Z,91.76
2022-09-01T04:32:27.416Z,91.76
2022-09-01T04:35:17.028Z,91.68
2022-09-01T04:38:08.266Z,91.56
2022-09-01T04:40:57.380Z,91.79
2022-09-01T04:43:47.438Z,91.62
2022-09-01T04:46:46.369Z,90.74
2022-09-01T04:49:34.288Z,91.24
2022-09-01T04:52:22.060Z,91.88
2022-09-01T04:55:18.715Z,91.86
2022-09-01T04:58:10.046Z,91.99
2022-09-01T05:01:00.347Z,91.90
2022-09-01T05:03:56.417Z,92.15
2022-09-01T05:06:49.440Z,92.28
2022-09-01T05:09:38.248Z,92.18
2022-09-01T05:12:27.641Z,93.41
2022-09-01T05:15:17.220Z,92.91
2022-09-01T05:18:10.020Z,92.34
2022-09-01T05:20:58.081Z,92.22
2022-09-01T05:23:47.007Z,92.29
2022-09-01T05:26:34.857Z,93.12
2022-09-01T05:29:22.652Z,95.48
2022-09-01T05:32:10.806Z,92.70
2022-09-01T05:34:58.961Z,93.71
2022-09-01T05:37:46.934Z,93.98
2022-09-01T05:40:41.393Z,92.43
2022-09-01T05:43:31.357Z,91.49
2022-09-01T05:46:26.675Z,90.52
2022-09-01T05:49:16.323Z,90.39
2022-09-01T05:52:04.302Z,89.66
2022-09-01T05:54:53.231Z,88.95
2022-09-01T05:57:41.956Z,88.82
2022-09-01T06:00:34.741Z,86.98
2022-09-01T06:03:24.893Z,84.42
2022-09-01T06:06:13.040Z,84.11
2022-09-01T06:09:02.128Z,81.73
2022-09-01T06:11:50.181Z,80.90
2022-09-01T06:14:37.974Z,80.69
2022-09-01T06:17:28.814Z,78.19
2022-09-01T06:20:18.842Z,77.36
2022-09-01T06:23:07.268Z,76.51
2022-09-01T06:25:55.386Z,75.28
2022-09-01T06:28:44.474Z,75.99
2022-09-01T06:31:39.355Z,75.37
2022-09-01T06:34:27.692Z,74.63
2022-09-01T06:37:15.529Z,73.90
2022-09-01T06:40:04.054Z,73.60
2022-09-01T06:42:53.416Z,74.34
2022-09-01T06:45:49.692Z,73.04
2022-09-01T06:48:46.528Z,72.14
2022-09-01T06:51:34.393Z,72.12
2022-09-01T06:54:22.939Z,71.90
2022-09-01T07:00:20.888Z,69.72
2022-09-01T07:03:11.397Z,68.25
2022-09-01T07:06:01.328Z,68.53
2022-09-01T07:18:22.456Z,66.57
2022-09-01T07:24:20.338Z,65.96
2022-09-01T07:27:09.603Z,66.26
2022-09-01T07:29:58.836Z,64.75
2022-09-01T07:32:48.105Z,63.69
2022-09-01T07:36:25.557Z,61.98
2022-09-01T07:45:33.145Z,61.92
2022-09-01T07:49:02.539Z,62.62
2022-09-01T07:51:36.420Z,61.31
2022-09-01T07:54:25.293Z,59.97
2022-09-01T07:57:13.370Z,60.55
2022-09-01T08:00:01.183Z,59.43
2022-09-01T08:02:55.196Z,59.29
2022-09-01T08:05:45.389Z,59.48
2022-09-01T08:08:35.899Z,58.81
2022-09-01T08:11:58.140Z,58.68
2022-09-01T08:14:37.002Z,58.41
2022-09-01T08:20:35.171Z,58.84
2022-09-01T08:23:26.454Z,56.78
2022-09-01T08:26:18.687Z,55.61
2022-09-01T08:29:09.987Z,55.73
2022-09-01T08:31:59.204Z,55.14
2022-09-01T08:34:47.061Z,54.44
2022-09-01T08:37:34.890Z,53.78
2022-09-01T08:40:24.401Z,50.27
2022-09-01T08:43:28.216Z,49.14
2022-09-01T08:46:38.046Z,48.92
2022-09-01T08:49:27.306Z,49.65
2022-09-01T08:52:34.751Z,50.16
2022-09-01T08:55:38.439Z,48.84
2022-09-01T08:58:32.180Z,49.09
2022-09-01T09:01:27.638Z,48.78
2022-09-01T09:04:49.255Z,48.08
2022-09-01T09:08:13.927Z,47.85
2022-09-01T09:11:34.245Z,48.85
2022-09-01T09:14:49.802Z,48.30
2022-09-01T09:17:46.145Z,46.79
2022-09-01T09:20:34.520Z,45.67
2022-09-01T09:23:31.626Z,45.25
2022-09-01T09:26:22.354Z,45.87
2022-09-01T09:29:10.469Z,44.56
2022-09-01T09:32:35.481Z,43.87
2022-09-01T09:35:36.467Z,43.16
2022-09-01T09:38:29.284Z,43.18
2022-09-01T09:41:26.986Z,41.43
2022-09-01T09:44:31.071Z,39.92
2022-09-01T09:47:46.632Z,38.22
2022-09-01T09:50:41.995Z,38.29
2022-09-01T09:53:34.329Z,36.61
2022-09-01T09:56:26.588Z,39.47
2022-09-01T09:59:57.089Z,40.38
2022-09-01T10:02:46.437Z,41.79
2022-09-01T10:05:48.720Z,43.41
2022-09-01T10:08:45.397Z,43.27
2022-09-01T10:11:43.857Z,42.10
2022-09-01T10:14:53.704Z,41.03
2022-09-01T10:17:44.434Z,40.54
2022-09-01T10:20:34.788Z,38.24
2022-09-01T10:23:27.200Z,36.58
2022-09-01T10:26:39.179Z,34.48
2022-09-01T10:29:47.571Z,35.56
2022-09-01T10:32:54.889Z,38.29
2022-09-01T10:35:47.747Z,40.57
2022-09-01T10:38:35.670Z,43.25
2022-09-01T10:41:56.538Z,45.59
2022-09-01T10:44:58.857Z,46.68
2022-09-01T10:47:46.786Z,46.15
2022-09-01T10:50:35.924Z,46.76
2022-09-01T10:53:36.040Z,45.88
2022-09-01T10:56:51.140Z,43.86
2022-09-01T10:59:44.184Z,42.36
2022-09-01T11:02:36.953Z,43.25
2022-09-01T11:06:12.077Z,43.67
2022-09-01T11:09:07.176Z,43.14
2022-09-01T11:12:29.973Z,43.36
2022-09-01T11:15:18.035Z,43.70
2022-09-01T11:18:18.767Z,44.91
2022-09-01T11:21:29.189Z,45.23
2022-09-01T11:24:38.853Z,44.49
2022-09-01T11:27:49.713Z,43.48
2022-09-01T11:30:58.155Z,44.58
2022-09-01T11:34:13.432Z,43.93
2022-09-01T11:37:02.306Z,43.77
2022-09-01T11:39:58.515Z,43.58
2022-09-01T11:42:47.051Z,44.04
2022-09-01T11:45:51.059Z,43.31
2022-09-01T11:48:39.752Z,43.15
2022-09-01T11:51:27.798Z,42.95
2022-09-01T11:54:16.081Z,43.30
2022-09-01T11:57:18.836Z,43.34
2022-09-01T12:00:14.339Z,43.27
2022-09-01T12:03:02.267Z,42.71
2022-09-01T12:06:01.594Z,43.08
2022-09-01T12:09:02.114Z,44.00
2022-09-01T12:11:51.238Z,43.44
2022-09-01T12:15:02.025Z,42.30
2022-09-01T12:17:46.943Z,43.70
2022-09-01T12:20:38.752Z,41.36
2022-09-01T12:23:43.046Z,40.82
2022-09-01T12:26:30.962Z,40.91
2022-09-01T12:29:19.456Z,41.05
2022-09-01T12:32:08.307Z,40.18
2022-09-01T12:35:27.133Z,39.97
2022-09-01T12:38:21.243Z,40.59
2022-09-01T12:41:35.358Z,39.44
2022-09-01T12:44:31.620Z,39.60
2022-09-01T12:47:34.473Z,40.07
2022-09-01T12:50:22.162Z,39.46
2022-09-01T12:53:18.325Z,40.39
2022-09-01T12:56:26.343Z,39.80
2022-09-01T12:59:35.801Z,39.49
2022-09-01T13:02:38.285Z,39.17
2022-09-01T13:05:43.617Z,39.53
2022-09-01T13:08:34.990Z,39.54
2022-09-01T13:11:22.877Z,38.60
2022-09-01T13:14:10.662Z,38.35
2022-09-01T13:16:58.639Z,38.09
2022-09-01T13:19:46.471Z,38.30
2022-09-01T13:22:35.287Z,37.63
2022-09-01T13:25:23.829Z,38.33
2022-09-01T13:28:13.468Z,37.79
2022-09-01T13:34:23.462Z,37.60
2022-09-01T13:37:11.912Z,37.52
2022-09-01T13:40:00.027Z,37.44
2022-09-01T13:42:54.738Z,37.28
2022-09-01T13:45:42.836Z,37.66
2022-09-01T13:51:43.099Z,38.83
2022-09-01T13:54:30.977Z,36.23
2022-09-01T13:57:18.808Z,35.63
2022-09-01T14:00:11.948Z,35.32
2022-09-01T14:03:07.918Z,35.02
2022-09-01T14:05:55.755Z,35.52
2022-09-01T14:08:43.609Z,35.07
2022-09-01T14:11:32.118Z,34.50
2022-09-01T14:14:19.882Z,35.40
2022-09-01T14:17:07.711Z,34.83
2022-09-01T14:19:57.558Z,33.03
2022-09-01T14:22:46.224Z,32.84
2022-09-01T14:25:34.974Z,32.59
2022-09-01T14:28:23.386Z,32.70
2022-09-01T14:31:14.040Z,34.10
2022-09-01T14:34:01.835Z,33.87
2022-09-01T14:36:50.084Z,34.04
2022-09-01T14:39:38.891Z,33.54
2022-09-01T14:42:29.064Z,34.23
2022-09-01T14:45:22.003Z,33.77
2022-09-01T14:48:09.921Z,34.04
2022-09-01T14:50:58.024Z,34.85
2022-09-01T14:53:45.816Z,35.05
2022-09-01T14:56:33.641Z,34.16
2022-09-01T14:59:21.533Z,33.79
2022-09-01T15:02:11.444Z,33.91
2022-09-01T15:04:59.457Z,34.42
2022-09-01T15:07:48.135Z,32.93
2022-09-01T15:10:36.524Z,32.65
2022-09-01T15:13:25.748Z,32.87
2022-09-01T15:16:18.663Z,32.96
2022-09-01T15:19:09.726Z,32.62
2022-09-01T15:21:57.525Z,33.26
2022-09-01T15:24:45.499Z,33.37
2022-09-01T15:27:33.268Z,32.22
2022-09-01T15:30:24.280Z,32.21
2022-09-01T15:33:15.558Z,32.58
2022-09-01T15:36:03.999Z,32.60
2022-09-01T15:38:55.676Z,32.71
2022-09-01T15:41:44.522Z,33.07
2022-09-01T15:44:32.752Z,33.10
2022-09-01T15:47:20.518Z,33.03
2022-09-01T15:50:12.788Z,32.82
2022-09-01T15:53:11.896Z,33.36
2022-09-01T15:56:00.420Z,33.49
2022-09-01T15:59:01.250Z,33.78
2022-09-01T16:01:49.615Z,32.96
2022-09-01T16:04:37.503Z,33.22
2022-09-01T16:07:26.525Z,33.67
2022-09-01T16:10:14.685Z,33.32
2022-09-01T16:13:03.521Z,33.52
2022-09-01T16:16:20.675Z,33.09
2022-09-01T16:19:32.786Z,33.57
2022-09-01T16:22:36.142Z,33.13
2022-09-01T16:25:34.811Z,33.92
2022-09-01T16:28:37.061Z,34.27
2022-09-01T16:31:28.550Z,33.97
2022-09-01T16:34:19.685Z,33.95
2022-09-01T16:37:14.965Z,34.46
2022-09-01T16:40:29.842Z,33.74
2022-09-01T16:43:35.757Z,33.73
2022-09-01T16:47:01.998Z,33.35
2022-09-01T16:50:35.290Z,33.10
2022-09-01T16:53:33.437Z,32.95
2022-09-01T16:56:32.460Z,32.86
2022-09-01T16:59:54.971Z,33.21
2022-09-01T17:02:59.726Z,33.49
2022-09-01T17:06:27.357Z,34.11
2022-09-01T17:09:46.381Z,34.39
2022-09-01T17:12:58.784Z,34.34
2022-09-01T17:15:58.090Z,34.40
2022-09-01T17:18:53.693Z,34.28
2022-09-01T17:21:52.769Z,34.17
2022-09-01T17:24:45.403Z,34.06
2022-09-01T17:27:39.972Z,34.34
2022-09-01T17:30:30.731Z,34.31
2022-09-01T17:33:49.907Z,34.66
2022-09-01T17:37:20.566Z,34.49
2022-09-01T17:40:23.549Z,34.62
2022-09-01T17:43:47.936Z,34.93
2022-09-01T17:47:00.256Z,35.47
2022-09-01T17:50:01.346Z,35.62
2022-09-01T17:53:13.705Z,35.59
2022-09-01T17:56:44.418Z,35.65
2022-09-01T17:59:47.312Z,35.82
2022-09-01T18:02:58.916Z,35.54
2022-09-01T18:06:04.405Z,35.97
2022-09-01T18:12:00.349Z,36.02
2022-09-01T18:15:04.416Z,36.19
2022-09-01T18:18:32.462Z,36.55
2022-09-01T18:21:36.322Z,36.55
2022-09-01T18:24:39.698Z,36.86
2022-09-01T18:27:32.741Z,37.08
2022-09-01T18:30:42.768Z,37.12
2022-09-01T18:34:01.196Z,37.24
2022-09-01T18:37:20.577Z,37.52
2022-09-01T18:40:34.491Z,37.85
2022-09-01T18:44:00.191Z,37.87
2022-09-01T18:47:01.242Z,38.06
2022-09-01T18:50:14.168Z,38.15
2022-09-01T18:53:23.862Z,38.52
2022-09-01T18:56:39.534Z,38.71
2022-09-01T18:59:39.082Z,38.69
2022-09-01T19:03:02.515Z,38.89
2022-09-01T19:06:28.150Z,39.22
2022-09-01T19:09:31.373Z,39.10
2022-09-01T19:12:54.332Z,39.49
2022-09-01T19:15:59.954Z,39.57
2022-09-01T19:19:20.943Z,39.41
2022-09-01T19:22:17.293Z,39.98
2022-09-01T19:25:29.209Z,39.99
2022-09-01T19:28:25.119Z,40.63
2022-09-01T19:31:13.398Z,40.42
2022-09-01T19:34:11.157Z,40.91
2022-09-01T19:37:02.551Z,41.03
2022-09-01T19:39:54.273Z,41.34
2022-09-01T19:43:08.893Z,41.27
2022-09-01T19:46:15.644Z,41.51
2022-09-01T19:49:10.528Z,41.63
2022-09-01T19:52:38.266Z,42.07
2022-09-01T19:56:13.699Z,42.64
2022-09-01T19:59:14.072Z,42.71
2022-09-01T20:02:31.632Z,42.71
2022-09-01T20:05:27.019Z,42.78
2022-09-01T20:08:50.666Z,43.22
2022-09-01T20:12:12.208Z,43.53
2022-09-01T20:15:25.191Z,43.68
2022-09-01T20:18:34.392Z,43.68
2022-09-01T20:21:22.299Z,43.38
2022-09-01T20:24:38.220Z,43.49
2022-09-01T20:27:46.976Z,43.28
2022-09-01T20:30:48.234Z,43.22
2022-09-01T20:33:45.602Z,43.13
2022-09-01T20:36:44.527Z,43.12
2022-09-01T20:40:01.548Z,42.82
2022-09-01T20:43:22.640Z,43.41
2022-09-01T20:46:11.796Z,43.33
2022-09-01T20:49:02.486Z,43.27
2022-09-01T20:52:12.895Z,43.30
2022-09-01T20:55:21.592Z,42.84
2022-09-01T20:58:43.377Z,42.96
2022-09-01T21:01:36.879Z,43.13
2022-09-01T21:04:44.469Z,43.10
2022-09-01T21:07:56.405Z,43.14
2022-09-01T21:11:34.383Z,43.12
2022-09-01T21:15:14.685Z,43.12
2022-09-01T21:18:53.898Z,43.33
2022-09-01T21:22:08.153Z,43.64
2022-09-01T21:24:56.360Z,43.59
2022-09-01T21:27:55.342Z,43.51
2022-09-01T21:30:43.348Z,43.96
2022-09-01T21:33:32.579Z,43.97
2022-09-01T21:36:20.390Z,44.30
2022-09-01T21:39:08.198Z,43.91
2022-09-01T21:41:57.086Z,44.12
2022-09-01T21:44:45.467Z,44.38
2022-09-01T21:47:33.866Z,44.55
2022-09-01T21:50:24.701Z,44.87
2022-09-01T21:53:15.993Z,44.95
2022-09-01T21:56:04.396Z,44.90
2022-09-01T21:58:52.168Z,45.27
2022-09-01T22:01:40.011Z,45.54
2022-09-01T22:04:28.164Z,45.82
2022-09-01T22:07:18.758Z,46.06
2022-09-01T22:10:10.660Z,45.96
2022-09-01T22:12:59.559Z,45.84
2022-09-01T22:15:51.380Z,46.27
2022-09-01T22:18:39.175Z,46.30
2022-09-01T22:21:27.228Z,46.35
2022-09-01T22:24:19.185Z,46.58
2022-09-01T22:27:07.426Z,46.36
2022-09-01T22:29:55.196Z,46.76
2022-09-01T22:32:45.345Z,46.90
2022-09-01T22:35:33.235Z,47.11
2022-09-01T22:38:22.676Z,47.30
2022-09-01T22:41:10.498Z,47.48
2022-09-01T22:44:00.224Z,47.68
2022-09-01T22:46:48.797Z,47.79
2022-09-01T22:49:36.901Z,48.04
2022-09-01T22:52:25.179Z,48.03
2022-09-01T22:55:13.644Z,48.21
2022-09-01T22:58:01.448Z,48.40
2022-09-01T23:00:54.146Z,48.69
2022-09-01T23:03:44.403Z,48.86
2022-09-01T23:06:33.900Z,49.10
2022-09-01T23:09:22.107Z,49.99
2022-09-01T23:12:09.904Z,49.83
2022-09-01T23:14:58.655Z,50.48
2022-09-01T23:17:46.598Z,50.98
2022-09-01T23:20:34.611Z,50.98
2022-09-01T23:23:23.415Z,51.44
2022-09-01T23:26:13.869Z,51.76
2022-09-01T23:29:02.907Z,51.98
2022-09-01T23:31:50.822Z,52.20
2022-09-01T23:34:39.235Z,52.66
2022-09-01T23:37:28.333Z,52.86
2022-09-01T23:40:16.252Z,53.20
2022-09-01T23:43:04.068Z,53.32
2022-09-01T23:45:56.428Z,53.49
2022-09-01T23:48:44.288Z,53.60
2022-09-01T23:51:32.389Z,53.68
2022-09-01T23:54:20.518Z,54.23
2022-09-01T23:57:08.983Z,54.32
2022-09-01T23:59:57.637Z,54.73
